Date,TemperatureHighF,TemperatureAvgF,TemperatureLowF,DewpointHighF,DewpointAvgF,DewpointLowF,HumidityHigh,HumidityAvg,HumidityLow,PressureMaxIn,PressureMinIn,WindSpeedMaxMPH,WindSpeedAvgMPH,GustSpeedMaxMPH,PrecipitationSumIn
2013-1-1,24.3,19.7,15.3,21.0,16.0,12.0,98,86,64,24.31,24.15,72,17,72,1.22
2013-1-2,24.6,17.7,14.2,15.8,5.4,-1.1,95,60,32,24.37,24.30,23,12,23,0.00
2013-1-3,29.8,22.6,14.9,7.5,2.9,-0.4,57,43,31,24.30,24.18,30,21,31,0.00
2013-1-4,32.7,29.4,24.4,21.6,13.4,-1.5,78,54,26,24.25,24.15,59,30,62,0.57
2013-1-5,30.4,25.9,23.4,19.9,16.2,11.1,79,66,54,24.29,24.14,33,20,34,0.00
2013-1-6,33.8,28.2,25.2,21.9,14.7,8.1,69,57,41,24.13,23.99,53,27,53,0.02
2013-1-7,32.9,29.1,25.5,24.6,18.9,15.4,74,66,53,24.04,23.77,54,29,65,0.93
2013-1-8,35.4,29.6,26.8,24.8,18.5,12.9,72,63,52,24.09,23.81,50,31,55,1.00
2013-1-9,40.6,36.0,32.5,25.5,23.2,20.3,72,60,46,24.04,23.78,53,33,55,0.00
2013-1-10,36.5,14.5,-1.1,26.1,10.4,-4.4,99,85,53,23.86,23.76,48,32,48,0.00
2013-1-11,-0.2,-4.2,-6.9,-3.1,-7.8,-10.7,88,84,82,24.08,23.84,39,24,41,0.00
2013-1-12,9.0,1.7,-4.7,6.8,-1.2,-8.3,91,87,84,24.12,24.01,0,0,0,0.00
2013-1-13,7.9,5.0,2.5,4.5,1.2,-2.0,89,84,74,24.16,24.10,0,0,0,0.00
2013-1-14,16.0,7.7,1.8,14.4,2.3,-5.1,94,78,69,24.12,24.00,0,0,0,0.00
2013-1-15,29.3,22.2,14.4,19.9,16.5,12.7,95,79,57,24.26,24.11,40,14,40,0.00
2013-1-16,37.8,33.4,23.0,19.4,15.8,11.5,73,48,37,24.39,24.23,43,27,44,0.00
2013-1-17,38.1,34.9,31.8,21.2,15.7,10.9,57,45,35,24.39,24.17,67,36,72,1.15
2013-1-18,39.2,36.7,33.6,16.0,9.8,4.1,45,33,23,24.20,24.08,60,37,66,3.02
2013-1-19,37.0,34.3,25.3,16.5,10.2,5.0,64,37,26,24.29,24.18,46,28,46,0.00
2013-1-20,32.7,18.7,11.5,19.6,13.8,9.3,96,83,48,24.41,24.26,40,12,41,0.00
2013-1-21,41.9,37.2,29.5,15.4,3.9,-3.6,54,26,16,24.27,24.10,48,35,51,0.06
2013-1-22,44.2,38.4,33.6,43.9,12.8,-12.5,23,10,10,24.20,24.13,46,30,46,0.06
2013-1-23,43.3,38.2,34.2,41.7,7.7,-11.9,48,25,10,24.19,24.01,35,16,43,0.00
2013-1-24,40.6,34.6,30.4,28.6,18.6,11.5,80,52,34,24.19,24.00,54,29,55,0.08
2013-1-25,38.1,34.9,31.5,29.8,24.5,19.2,83,66,55,24.18,24.02,36,19,36,0.00
2013-1-26,45.1,33.9,26.1,30.4,27.7,24.6,99,80,46,24.04,23.88,36,16,37,0.00
2013-1-27,26.6,23.2,19.2,25.9,15.3,9.5,99,72,54,23.94,23.89,29,16,29,0.00
2013-1-28,24.6,19.8,17.2,15.4,11.0,8.2,86,68,58,23.92,23.80,36,24,36,0.00
2013-1-29,19.8,4.4,-9.8,16.5,1.4,-13.9,95,87,76,24.12,23.80,45,20,46,0.01
2013-1-30,29.1,20.0,7.9,22.1,16.0,5.7,96,85,71,24.10,23.92,38,22,49,0.00
2013-1-31,33.8,26.1,7.9,26.6,21.4,5.7,99,83,69,24.16,24.08,43,21,44,0.00